Terminal Aerodrome Forecast
Issued by NWS

Home | Current Version | Previous Version | Text Only | Print | Product List | Glossary On
Versions: 1 2 3 4 5 6 7 8 9 10 11 12 13
000
FTUS45 KRIW 091721
TAFPNA
TAF
KPNA 091721Z 0918/1018 VRB05KT 3SM -SN SCT015 OVC025
      TEMPO 0918/0922 1 1/2SM -SN
     FM092300 30006KT 1 1/2SM -SN OVC012
     FM101300 30006KT 2SM -SN OVC016
      AMD LTD TO CLD VIS AND WIND=

USA.gov is the U.S. government's official web portal to all federal, state and local government web resources and services.